Time;durP1;ratioP1;P1;durP2;ratioP2;P2;SDS_P1;SDS_P2;PMS_P1;PMS_P2;Temp;Humidity;BMP_temperature;BMP_pressure;BME280_temperature;BME280_humidity;BME280_pressure;Samples;Min_cycle;Max_cycle;Signal;HPM_P1;HPM_P2
2021/01/27 00:00:35;;;;;;;1.85;1.65;;;;;;;6.60;25.77;100675.16;4951086;28;98519;-71
2021/01/27 00:03:01;;;;;;;1.58;1.27;;;;;;;6.52;25.80;100682.31;4951143;28;98464;-71
2021/01/27 00:05:41;;;;;;;2.70;1.23;;;;;;;6.57;25.89;100677.84;4950667;28;96789;-72
2021/01/27 00:08:08;;;;;;;3.08;1.70;;;;;;;6.55;25.94;100672.72;4948923;28;96715;-72
2021/01/27 00:10:35;;;;;;;1.42;1.33;;;;;;;6.59;25.69;100677.81;4950521;28;98579;-73
2021/01/27 00:13:04;;;;;;;1.60;1.50;;;;;;;6.59;25.96;100681.25;4950950;28;98501;-72
2021/01/27 00:15:32;;;;;;;1.55;1.45;;;;;;;6.54;25.68;100670.16;4951340;28;96663;-72
2021/01/27 00:17:59;;;;;;;1.73;1.60;;;;;;;6.53;25.75;100663.28;4951156;28;96778;-72
2021/01/27 00:20:26;;;;;;;4.80;1.33;;;;;;;6.51;25.32;100659.91;4951295;28;98640;-72
2021/01/27 00:22:56;;;;;;;1.48;1.35;;;;;;;6.49;25.44;100659.91;4951272;28;98547;-72
2021/01/27 00:25:24;;;;;;;1.55;1.45;;;;;;;6.56;25.75;100658.03;4950801;28;96737;-73
2021/01/27 00:27:51;;;;;;;1.10;1.10;;;;;;;6.56;25.69;100652.84;4951377;28;96546;-72
2021/01/27 00:30:28;;;;;;;13.77;1.60;;;;;;;6.51;25.50;100646.94;4950022;28;98678;-72
2021/01/27 00:32:55;;;;;;;1.48;1.38;;;;;;;6.47;25.96;100645.31;4950264;28;98694;-71
2021/01/27 00:35:25;;;;;;;1.42;1.33;;;;;;;6.44;25.87;100645.38;4950850;28;96822;-71
2021/01/27 00:37:55;;;;;;;2.15;1.67;;;;;;;6.51;25.95;100647.78;4945168;28;96527;-72
2021/01/27 00:40:22;;;;;;;1.50;1.40;;;;;;;6.46;25.76;100654.00;4942964;28;99637;-72
2021/01/27 00:42:49;;;;;;;1.58;1.48;;;;;;;6.47;25.82;100646.16;4932218;28;98622;-72
2021/01/27 00:45:16;;;;;;;1.33;1.20;;;;;;;6.48;25.65;100655.63;4944188;28;97517;-72
2021/01/27 00:47:42;;;;;;;1.30;1.20;;;;;;;6.42;25.83;100660.97;4936216;28;97227;-72
2021/01/27 00:50:09;;;;;;;2.25;1.83;;;;;;;6.41;26.09;100668.78;4938072;28;98657;-72
2021/01/27 00:52:36;;;;;;;1.80;1.50;;;;;;;6.43;25.36;100672.19;4936903;28;98497;-72
2021/01/27 00:55:12;;;;;;;1.20;1.10;;;;;;;6.50;25.41;100663.38;4939869;28;97178;-72
2021/01/27 00:57:39;;;;;;;1.60;1.50;;;;;;;6.42;25.69;100673.06;4942142;28;97922;-71
2021/01/27 01:00:18;;;;;;;1.75;1.60;;;;;;;6.36;26.32;100668.06;4941074;28;98608;-71
2021/01/27 01:02:44;;;;;;;1.60;1.50;;;;;;;6.39;25.69;100670.56;4941248;28;98524;-71
2021/01/27 01:05:13;;;;;;;1.50;1.40;;;;;;;6.34;26.37;100670.69;4939500;28;96698;-71
2021/01/27 01:07:42;;;;;;;4.55;2.45;;;;;;;6.24;26.03;100670.09;4941062;28;99882;-71
2021/01/27 01:10:09;;;;;;;1.83;1.60;;;;;;;6.25;26.09;100665.75;4941223;28;99399;-71
2021/01/27 01:12:35;;;;;;;2.13;1.85;;;;;;;6.25;26.24;100674.38;4942596;28;98476;-71
2021/01/27 01:15:02;;;;;;;2.15;1.98;;;;;;;6.36;26.01;100670.66;4938271;28;99138;-71
2021/01/27 01:17:28;;;;;;;1.70;1.60;;;;;;;6.27;26.28;100669.97;4942949;28;97065;-72
2021/01/27 01:19:55;;;;;;;2.05;1.80;;;;;;;6.30;25.41;100672.50;4939723;28;98626;-71
2021/01/27 01:22:21;;;;;;;2.05;1.50;;;;;;;6.35;25.43;100661.19;4940045;28;98676;-71
2021/01/27 01:24:47;;;;;;;1.70;1.60;;;;;;;6.31;25.64;100665.59;4939916;28;99583;-72
2021/01/27 01:27:14;;;;;;;1.88;1.77;;;;;;;6.29;25.68;100663.03;4965760;22;97909;-69
2021/01/27 01:29:40;;;;;;;2.97;1.42;;;;;;;6.19;26.88;100660.72;4962793;28;98469;-68
2021/01/27 01:32:08;;;;;;;2.38;1.90;;;;;;;6.18;28.10;100665.06;4962564;28;98515;-69
2021/01/27 01:34:34;;;;;;;1.65;1.55;;;;;;;6.03;28.78;100665.44;4964153;28;100453;-69
2021/01/27 01:37:01;;;;;;;3.05;2.38;;;;;;;5.72;29.61;100655.78;4963169;28;96876;-69
2021/01/27 01:39:27;;;;;;;2.20;1.70;;;;;;;5.75;29.77;100649.69;4962802;28;98580;-68
2021/01/27 01:41:53;;;;;;;5.57;2.22;;;;;;;5.62;30.50;100650.88;4952875;28;98640;-69
2021/01/27 01:44:20;;;;;;;2.78;2.50;;;;;;;5.53;30.80;100645.00;4953383;28;97138;-69
2021/01/27 01:46:46;;;;;;;3.67;2.20;;;;;;;5.56;30.99;100643.25;4949948;28;98057;-69
2021/01/27 01:49:13;;;;;;;2.72;2.08;;;;;;;5.52;31.07;100639.88;4947986;28;99196;-69
2021/01/27 01:51:42;;;;;;;2.30;1.70;;;;;;;5.63;30.27;100635.31;4933357;28;97727;-69
2021/01/27 01:54:19;;;;;;;2.10;1.90;;;;;;;5.53;31.23;100633.81;4948307;28;99928;-69
2021/01/27 01:57:13;;;;;;;2.22;2.03;;;;;;;5.53;30.13;100623.47;4934947;28;98567;-69
2021/01/27 01:59:40;;;;;;;1.85;1.40;;;;;;;5.48;29.47;100620.13;4948020;28;98514;-69
2021/01/27 02:02:07;;;;;;;2.92;1.60;;;;;;;5.55;29.51;100616.53;4920360;28;98742;-69
2021/01/27 02:04:53;;;;;;;2.05;1.85;;;;;;;5.60;29.82;100601.78;4947253;28;98227;-69
2021/01/27 02:07:20;;;;;;;1.83;1.73;;;;;;;5.63;29.52;100606.84;4935031;28;99819;-69
2021/01/27 02:09:46;;;;;;;1.80;1.70;;;;;;;5.63;29.08;100604.25;4946967;28;98902;-69
2021/01/27 02:12:19;;;;;;;1.73;1.63;;;;;;;5.55;30.51;100616.53;4947701;28;98689;-69
2021/01/27 02:15:00;;;;;;;2.15;1.90;;;;;;;5.57;29.49;100614.75;4946166;28;97732;-69
2021/01/27 02:17:39;;;;;;;1.50;1.40;;;;;;;5.63;28.86;100611.19;4938661;28;98977;-69
2021/01/27 02:20:20;;;;;;;2.22;1.67;;;;;;;5.67;29.03;100608.47;4935420;28;98987;-70
2021/01/27 02:22:56;;;;;;;1.50;1.40;;;;;;;5.65;28.68;100614.59;4933506;28;98573;-70
2021/01/27 02:25:52;;;;;;;1.25;1.25;;;;;;;5.49;28.03;100612.38;4934458;28;97284;-70
2021/01/27 02:29:03;;;;;;;3.50;1.50;;;;;;;5.59;27.96;100620.72;4948337;28;97216;-70
2021/01/27 02:31:48;;;;;;;3.40;1.42;;;;;;;5.38;29.32;100618.66;4926506;28;98476;-70
2021/01/27 02:34:45;;;;;;;1.95;1.85;;;;;;;5.46;28.95;100625.34;4952877;28;99018;-70
2021/01/27 02:37:13;;;;;;;1.80;1.30;;;;;;;5.53;29.23;100626.06;4929774;28;97670;-70
2021/01/27 02:39:52;;;;;;;1.70;1.60;;;;;;;5.53;29.71;100626.06;4916240;28;97918;-70
2021/01/27 02:43:14;;;;;;;1.48;1.38;;;;;;;5.42;31.57;100628.88;4918067;28;98538;-70
2021/01/27 02:45:43;;;;;;;1.92;1.75;;;;;;;5.23;31.18;100625.88;4879365;28;98742;-70
2021/01/27 02:48:13;;;;;;;2.38;2.17;;;;;;;5.28;30.09;100615.44;4918934;28;96898;-70
2021/01/27 02:50:44;;;;;;;2.00;1.85;;;;;;;5.33;29.60;100616.19;4931007;28;99155;-70
2021/01/27 02:53:21;;;;;;;1.95;1.85;;;;;;;5.30;30.29;100623.16;4926942;28;99278;-70
2021/01/27 02:56:00;;;;;;;2.17;1.90;;;;;;;5.38;29.14;100622.09;4912371;28;97506;-70
2021/01/27 02:58:37;;;;;;;1.75;1.65;;;;;;;5.41;29.27;100619.44;4913282;28;98654;-70
2021/01/27 03:01:06;;;;;;;1.58;1.50;;;;;;;5.43;28.66;100614.22;4932233;28;97808;-70
2021/01/27 03:03:39;;;;;;;2.05;1.95;;;;;;;5.48;28.52;100614.97;4915154;28;102486;-69
2021/01/27 03:06:07;;;;;;;1.75;1.65;;;;;;;5.52;28.60;100612.28;4936116;28;97516;-70
2021/01/27 03:08:37;;;;;;;1.58;1.48;;;;;;;5.49;28.63;100603.75;4935817;28;98792;-69
2021/01/27 03:11:09;;;;;;;1.58;1.48;;;;;;;5.49;29.03;100589.09;4920747;28;97831;-68
2021/01/27 03:13:38;;;;;;;1.60;1.50;;;;;;;5.44;29.15;100605.59;4915274;28;99599;-69
2021/01/27 03:16:13;;;;;;;2.15;1.95;;;;;;;5.48;29.09;100600.31;4948003;28;98576;-68
2021/01/27 03:18:41;;;;;;;1.58;1.48;;;;;;;5.52;28.60;100593.31;4914302;28;97836;-68
2021/01/27 03:21:12;;;;;;;1.55;1.45;;;;;;;5.45;28.87;100587.47;4932898;28;97139;-68
2021/01/27 03:23:48;;;;;;;1.73;1.63;;;;;;;5.40;29.02;100596.22;4932130;28;98483;-69
2021/01/27 03:26:40;;;;;;;1.50;1.40;;;;;;;5.38;29.68;100592.78;4914249;28;100510;-68
2021/01/27 03:29:25;;;;;;;1.40;1.30;;;;;;;5.38;29.40;100588.50;4936076;28;96691;-68
2021/01/27 03:31:51;;;;;;;1.50;1.40;;;;;;;5.36;29.31;100586.81;4950368;28;97571;-68
2021/01/27 03:34:22;;;;;;;1.65;1.55;;;;;;;5.39;29.28;100589.34;4915535;28;98840;-68
2021/01/27 03:36:52;;;;;;;2.42;1.20;;;;;;;5.33;29.40;100592.94;4916544;28;99420;-68
2021/01/27 03:39:18;;;;;;;1.70;1.60;;;;;;;5.30;29.74;100597.31;4917366;28;96688;-68
2021/01/27 03:41:57;;;;;;;4.07;2.63;;;;;;;5.25;29.78;100600.00;4932835;28;99764;-68
2021/01/27 03:44:27;;;;;;;1.55;1.50;;;;;;;5.30;30.01;100605.06;4923223;28;98638;-68
2021/01/27 03:47:00;;;;;;;2.30;1.90;;;;;;;5.24;29.62;100598.28;4932951;28;99250;-68
2021/01/27 03:49:36;;;;;;;1.53;1.30;;;;;;;5.21;29.76;100606.94;4933451;28;96968;-68
2021/01/27 03:52:19;;;;;;;1.40;1.30;;;;;;;5.17;30.58;100607.09;4912348;28;97835;-68
2021/01/27 03:54:55;;;;;;;1.80;1.70;;;;;;;5.21;30.38;100601.78;4948790;28;99267;-68
2021/01/27 03:57:27;;;;;;;2.42;1.83;;;;;;;5.20;30.76;100607.84;4931927;28;98917;-68
2021/01/27 03:59:54;;;;;;;1.83;1.73;;;;;;;5.25;30.30;100605.16;4919566;28;99076;-68
2021/01/27 04:02:22;;;;;;;1.92;1.83;;;;;;;5.16;30.46;100606.19;4924330;28;98009;-67
2021/01/27 04:04:49;;;;;;;2.40;2.20;;;;;;;5.19;30.60;100606.16;4953135;28;98962;-68
2021/01/27 04:07:16;;;;;;;1.60;1.50;;;;;;;5.15;30.57;100608.81;4950541;28;98429;-68
2021/01/27 04:09:43;;;;;;;2.67;2.40;;;;;;;5.14;30.89;100618.31;4951175;28;96714;-68
2021/01/27 04:12:10;;;;;;;1.65;1.55;;;;;;;5.09;30.84;100635.66;4947585;28;97858;-68
2021/01/27 04:14:36;;;;;;;3.42;2.42;;;;;;;5.07;30.44;100650.34;4948564;28;98682;-68
2021/01/27 04:17:24;;;;;;;4.30;1.75;;;;;;;5.13;29.92;100655.38;4945921;28;98420;-68
2021/01/27 04:19:51;;;;;;;2.33;2.22;;;;;;;5.18;30.02;100645.81;4947580;28;98435;-68
2021/01/27 04:22:17;;;;;;;1.83;1.58;;;;;;;5.24;29.80;100629.31;4948291;28;98767;-68
2021/01/27 04:24:44;;;;;;;1.55;1.30;;;;;;;5.18;29.58;100617.38;4946520;28;98647;-69
2021/01/27 04:27:11;;;;;;;1.85;1.60;;;;;;;5.20;29.03;100613.00;4946843;28;99399;-69
2021/01/27 04:29:37;;;;;;;1.88;1.77;;;;;;;5.26;28.76;100623.22;4951032;28;96570;-69
2021/01/27 04:32:04;;;;;;;2.65;1.80;;;;;;;5.17;29.41;100626.00;4947050;28;97863;-69
2021/01/27 04:34:30;;;;;;;1.98;1.88;;;;;;;5.12;30.06;100620.09;4944860;28;98663;-69
2021/01/27 04:36:57;;;;;;;1.73;1.63;;;;;;;5.16;29.35;100616.53;4949742;28;98383;-69
2021/01/27 04:39:23;;;;;;;1.50;1.40;;;;;;;5.16;29.62;100616.53;4946135;28;97189;-69
2021/01/27 04:41:49;;;;;;;1.70;1.60;;;;;;;5.09;29.96;100614.97;4947232;28;97128;-68
2021/01/27 04:44:16;;;;;;;2.10;1.90;;;;;;;5.03;30.30;100616.84;4924972;28;98716;-69
2021/01/27 04:47:22;;;;;;;1.40;1.40;;;;;;;5.03;30.48;100615.13;4916941;28;98548;-69
2021/01/27 04:49:50;;;;;;;;;;;;;;;5.09;30.08;100603.78;4951117;28;96645;-69
2021/01/27 04:52:48;;;;;;;2.75;1.58;;;;;;;5.08;30.29;100592.63;4927516;28;96730;-69
2021/01/27 04:55:46;;;;;;;2.45;1.80;;;;;;;5.04;31.06;100590.13;4950400;28;98583;-69
2021/01/27 04:58:37;;;;;;;1.83;1.73;;;;;;;5.06;31.58;100589.22;4928619;28;98590;-68
2021/01/27 05:01:22;;;;;;;3.03;1.40;;;;;;;4.92;32.10;100591.25;4947386;28;96615;-69
2021/01/27 05:03:57;;;;;;;1.85;1.67;;;;;;;4.93;32.07;100593.78;4942268;28;96636;-69
2021/01/27 05:06:28;;;;;;;2.30;2.10;;;;;;;4.84;33.49;100593.13;4937935;28;98597;-69
2021/01/27 05:09:05;;;;;;;1.83;1.73;;;;;;;4.56;34.60;100590.25;4922191;28;98415;-69
2021/01/27 05:11:32;;;;;;;1.70;1.60;;;;;;;4.53;34.94;100588.59;4915619;28;96917;-69
2021/01/27 05:14:00;;;;;;;2.72;2.00;;;;;;;4.61;34.07;100585.84;4933018;28;96989;-69
2021/01/27 05:16:28;;;;;;;5.25;2.03;;;;;;;4.69;33.56;100582.25;4929784;28;98557;-68
2021/01/27 05:18:58;;;;;;;4.80;2.30;;;;;;;4.69;34.04;100578.81;4952956;28;98635;-69
2021/01/27 05:21:31;;;;;;;2.42;2.22;;;;;;;4.69;33.39;100578.81;4953745;28;98487;-70
2021/01/27 05:23:59;;;;;;;2.75;2.50;;;;;;;4.69;33.51;100576.25;4925909;28;96659;-68
2021/01/27 05:26:35;;;;;;;5.15;3.08;;;;;;;4.66;33.96;100574.56;4948645;28;98631;-68
2021/01/27 05:29:04;;;;;;;4.03;3.20;;;;;;;4.65;34.33;100582.34;4937929;28;98690;-68
2021/01/27 05:32:08;;;;;;;3.70;2.40;;;;;;;4.55;35.08;100579.09;4919841;28;97508;-68
2021/01/27 05:34:54;;;;;;;3.80;1.98;;;;;;;4.55;34.33;100581.66;4953627;28;96838;-68
2021/01/27 05:37:26;;;;;;;3.28;1.88;;;;;;;4.62;34.35;100585.81;4950816;28;99550;-68
2021/01/27 05:40:06;;;;;;;3.53;2.20;;;;;;;4.57;34.79;100587.63;4963871;28;98537;-68
2021/01/27 05:42:33;;;;;;;3.38;2.28;;;;;;;4.57;34.32;100587.63;4953110;28;98343;-69
2021/01/27 05:45:24;;;;;;;2.88;2.25;;;;;;;4.42;35.50;100590.50;4933519;28;99150;-69
2021/01/27 05:47:50;;;;;;;3.10;2.05;;;;;;;4.38;37.50;100589.75;4951899;28;98519;-68
2021/01/27 05:50:32;;;;;;;3.53;2.13;;;;;;;4.47;34.91;100593.88;4931463;28;98732;-68
2021/01/27 05:53:21;;;;;;;4.07;2.05;;;;;;;4.42;35.54;100591.41;4931702;28;97792;-70
2021/01/27 05:56:15;;;;;;;2.47;2.10;;;;;;;4.46;35.24;100577.53;4951685;28;96642;-69
2021/01/27 05:58:58;;;;;;;9.32;2.58;;;;;;;4.44;34.64;100581.03;4943870;28;98706;-68
2021/01/27 06:01:44;;;;;;;2.42;2.03;;;;;;;4.32;36.35;100574.38;4942219;28;98510;-67
2021/01/27 06:04:10;;;;;;;4.20;2.55;;;;;;;4.28;36.36;100585.63;4927919;28;97428;-68
2021/01/27 06:06:47;;;;;;;4.32;2.35;;;;;;;4.33;35.92;100591.56;4949350;28;96680;-69
2021/01/27 06:09:14;;;;;;;4.03;2.30;;;;;;;4.19;36.87;100583.22;4926754;28;98569;-68
2021/01/27 06:11:42;;;;;;;3.42;2.80;;;;;;;3.95;37.99;100594.84;4944535;28;98432;-68
2021/01/27 06:14:16;;;;;;;3.65;2.47;;;;;;;4.00;37.50;100600.78;4943463;28;96598;-67
2021/01/27 06:16:44;;;;;;;2.33;2.15;;;;;;;4.00;39.42;100612.81;4934839;28;96524;-68
2021/01/27 06:19:17;;;;;;;9.82;2.55;;;;;;;3.89;39.29;100602.69;4922672;28;98831;-66
2021/01/27 06:22:02;;;;;;;9.88;2.92;;;;;;;3.97;39.62;100605.13;4946319;28;98490;-65
2021/01/27 06:25:02;;;;;;;20.88;3.05;;;;;;;3.86;38.87;100605.31;4936207;28;96610;-66
2021/01/27 06:27:44;;;;;;;2.65;2.40;;;;;;;3.88;39.87;100626.75;4884663;28;98115;-67
2021/01/27 06:30:28;;;;;;;2.65;2.45;;;;;;;3.90;41.62;100623.28;4939388;28;98642;-66
2021/01/27 06:33:07;;;;;;;2.63;2.13;;;;;;;3.68;42.55;100630.53;4943376;28;98671;-65
2021/01/27 06:35:55;;;;;;;3.63;2.30;;;;;;;3.65;41.95;100633.13;4921182;28;96706;-67
2021/01/27 06:38:39;;;;;;;6.63;3.20;;;;;;;3.83;40.81;100636.28;4947831;28;96766;-65
2021/01/27 06:41:45;;;;;;;3.40;2.90;;;;;;;3.83;39.72;100628.56;4943168;28;98768;-66
2021/01/27 06:44:29;;;;;;;2.65;2.45;;;;;;;3.76;41.19;100632.13;4924965;28;98714;-67
2021/01/27 06:47:20;;;;;;;4.10;2.70;;;;;;;3.80;40.10;100634.63;4919857;28;96691;-72
2021/01/27 06:50:09;;;;;;;4.90;3.17;;;;;;;3.84;40.37;100636.28;4938219;28;96810;-69
2021/01/27 06:53:05;;;;;;;4.10;3.00;;;;;;;3.82;40.21;100632.00;4947161;28;98757;-69
2021/01/27 06:55:59;;;;;;;7.68;2.80;;;;;;;4.01;38.11;100630.84;4934994;28;99643;-76
2021/01/27 06:59:02;;;;;;;7.05;3.13;;;;;;;4.03;38.33;100635.97;4944049;28;98003;-83
2021/01/27 07:02:06;;;;;;;3.88;3.53;;;;;;;4.06;37.06;100636.78;4946907;28;97273;-64
2021/01/27 07:04:54;;;;;;;13.63;3.97;;;;;;;4.17;36.64;100637.44;4937436;28;98471;-67
2021/01/27 07:07:29;;;;;;;11.10;4.00;;;;;;;4.21;36.67;100638.25;4947166;28;98708;-67
2021/01/27 07:10:21;;;;;;;6.38;3.35;;;;;;;4.25;36.61;100634.72;4928082;28;96655;-67
2021/01/27 07:12:51;;;;;;;12.95;4.18;;;;;;;4.26;36.33;100632.97;4944089;28;96906;-66
2021/01/27 07:15:44;;;;;;;5.35;3.25;;;;;;;4.13;37.65;100643.53;4900648;28;98814;-67
2021/01/27 07:18:29;;;;;;;9.55;4.60;;;;;;;4.15;38.32;100646.91;4940347;28;98542;-67
2021/01/27 07:21:04;;;;;;;10.93;3.67;;;;;;;4.29;37.18;100640.69;4937925;28;97032;-66
2021/01/27 07:23:55;;;;;;;5.80;3.42;;;;;;;4.24;40.53;100645.06;4952472;28;96446;-67
2021/01/27 07:26:26;;;;;;;8.90;3.42;;;;;;;4.82;40.27;100636.22;4948512;28;98497;-66
2021/01/27 07:29:12;;;;;;;10.00;5.20;;;;;;;5.65;35.30;100637.88;4934784;28;97483;-67
2021/01/27 07:31:54;;;;;;;9.35;3.85;;;;;;;5.99;36.93;100638.78;4934416;28;96717;-67
2021/01/27 07:34:41;;;;;;;10.15;4.78;;;;;;;5.95;36.21;100644.91;4951728;28;96578;-67
2021/01/27 07:37:21;;;;;;;14.88;5.25;;;;;;;6.16;35.73;100659.06;4915383;28;98622;-67
2021/01/27 07:39:53;;;;;;;11.70;5.15;;;;;;;6.60;33.71;100657.03;4915287;28;98859;-67
2021/01/27 07:42:43;;;;;;;3.78;2.92;;;;;;;7.23;31.14;100648.34;4943381;28;97835;-66
2021/01/27 07:45:13;;;;;;;5.93;3.40;;;;;;;7.45;30.25;100647.69;4945682;28;96559;-67
2021/01/27 07:47:49;;;;;;;7.10;3.20;;;;;;;7.18;31.09;100637.25;4904754;28;98608;-67
2021/01/27 07:50:17;;;;;;;6.15;2.78;;;;;;;6.95;31.85;100629.31;4915862;28;98678;-68
2021/01/27 07:53:09;;;;;;;5.43;2.78;;;;;;;6.81;32.50;100633.13;4943308;28;98688;-67
2021/01/27 07:55:35;;;;;;;7.93;2.78;;;;;;;6.67;32.54;100635.28;4948316;28;97394;-67
2021/01/27 07:58:17;;;;;;;8.27;3.13;;;;;;;6.61;31.71;100644.97;4949289;28;99186;-65
2021/01/27 08:00:56;;;;;;;3.70;2.67;;;;;;;6.63;32.45;100641.44;4934158;28;98608;-67
2021/01/27 08:03:25;;;;;;;5.97;3.00;;;;;;;7.02;31.87;100636.00;4928627;28;97002;-67
2021/01/27 08:05:57;;;;;;;7.63;2.60;;;;;;;7.37;33.07;100642.75;4945522;28;96606;-67
2021/01/27 08:08:23;;;;;;;6.40;2.55;;;;;;;7.54;33.57;100634.44;4944372;28;100345;-67
2021/01/27 08:10:50;;;;;;;7.57;3.13;;;;;;;8.11;32.87;100633.47;4952029;28;98390;-67
2021/01/27 08:13:33;;;;;;;7.75;2.97;;;;;;;8.32;33.19;100630.13;4951094;28;96750;-67
2021/01/27 08:16:01;;;;;;;9.50;3.20;;;;;;;8.78;29.62;100625.91;4951431;28;97541;-67
2021/01/27 08:18:27;;;;;;;6.88;3.03;;;;;;;8.92;29.04;100618.47;4948147;28;99935;-67
2021/01/27 08:21:22;;;;;;;7.18;2.45;;;;;;;9.50;27.82;100622.34;4950121;28;98602;-67
2021/01/27 08:23:49;;;;;;;4.40;3.03;;;;;;;9.94;29.21;100620.53;4928216;28;97721;-67
2021/01/27 08:26:40;;;;;;;4.13;2.47;;;;;;;9.77;27.42;100609.97;4928680;28;98299;-67
2021/01/27 08:29:08;;;;;;;13.70;3.05;;;;;;;9.67;26.91;100605.13;4950655;28;98548;-66
2021/01/27 08:31:34;;;;;;;9.82;3.00;;;;;;;9.39;26.38;100608.00;4949805;28;98730;-65
2021/01/27 08:34:01;;;;;;;5.35;2.88;;;;;;;9.48;27.30;100605.94;4932859;28;97581;-66
2021/01/27 08:36:31;;;;;;;8.95;3.40;;;;;;;10.02;26.53;100594.19;4930849;28;97504;-67
2021/01/27 08:38:58;;;;;;;8.63;2.80;;;;;;;10.20;25.50;100585.59;4950337;28;98572;-65
2021/01/27 08:41:40;;;;;;;5.50;3.03;;;;;;;10.14;24.67;100583.25;4952581;28;98595;-67
2021/01/27 08:44:27;;;;;;;7.43;2.60;;;;;;;9.95;25.54;100588.38;4949594;28;96705;-67
2021/01/27 08:47:17;;;;;;;12.05;3.00;;;;;;;10.07;24.84;100584.44;4947354;28;98385;-67
2021/01/27 08:49:55;;;;;;;3.00;2.47;;;;;;;9.80;24.51;100602.03;4949689;28;98698;-67
2021/01/27 08:52:25;;;;;;;3.63;2.05;;;;;;;9.57;24.30;100611.63;4934994;28;98797;-67
2021/01/27 08:54:52;;;;;;;5.95;2.40;;;;;;;9.36;25.28;100600.31;4954208;28;98333;-67
2021/01/27 08:57:22;;;;;;;6.60;2.47;;;;;;;8.99;28.96;100605.22;4954807;28;97659;-67
2021/01/27 09:00:15;;;;;;;6.78;3.53;;;;;;;9.13;32.00;100609.00;4951428;28;98902;-67
2021/01/27 09:02:51;;;;;;;8.43;4.32;;;;;;;9.04;33.88;100605.91;4932151;28;100789;-67
2021/01/27 09:05:24;;;;;;;31.55;4.38;;;;;;;8.79;34.51;100608.56;4951802;28;96809;-67
2021/01/27 09:07:51;;;;;;;6.28;3.47;;;;;;;8.36;36.10;100612.69;4954657;28;99501;-67
2021/01/27 09:10:35;;;;;;;13.57;3.40;;;;;;;8.35;36.25;100613.56;4953065;28;98498;-67
2021/01/27 09:13:20;;;;;;;7.37;3.20;;;;;;;8.07;36.83;100616.28;4937565;28;98577;-67
2021/01/27 09:15:50;;;;;;;;;;;;;;;8.12;36.76;100627.34;4954723;28;99018;-67
2021/01/27 09:18:16;;;;;;;9.02;3.17;;;;;;;7.96;36.94;100626.16;4936312;28;96702;-67
2021/01/27 09:20:43;;;;;;;12.45;3.72;;;;;;;7.72;37.74;100639.03;4950082;28;98496;-67
2021/01/27 09:23:11;;;;;;;7.07;3.75;;;;;;;7.66;36.95;100643.56;4922090;28;100046;-67
2021/01/27 09:25:45;;;;;;;5.38;3.92;;;;;;;7.45;38.53;100645.94;4936260;28;96771;-67
2021/01/27 09:28:12;;;;;;;5.20;4.47;;;;;;;7.48;37.97;100640.66;4953673;28;97201;-67
2021/01/27 09:30:39;;;;;;;5.97;3.67;;;;;;;7.48;38.21;100637.22;4949115;28;99392;-67
2021/01/27 09:33:11;;;;;;;8.18;3.95;;;;;;;7.35;39.16;100635.00;4953632;28;99128;-67
2021/01/27 09:35:38;;;;;;;5.10;3.72;;;;;;;7.34;38.92;100648.84;4956010;28;97870;-67
2021/01/27 09:38:17;;;;;;;9.52;3.90;;;;;;;7.43;39.13;100654.66;4952061;28;97385;-67
2021/01/27 09:40:50;;;;;;;5.50;3.30;;;;;;;7.42;39.61;100650.38;4935989;28;98552;-67
2021/01/27 09:43:22;;;;;;;11.00;3.95;;;;;;;7.20;39.79;100645.00;4917601;28;98479;-67
2021/01/27 09:45:49;;;;;;;7.70;3.78;;;;;;;7.28;39.40;100638.66;4935531;28;99823;-67
2021/01/27 09:48:21;;;;;;;7.55;3.47;;;;;;;7.24;39.82;100638.81;4935336;28;96816;-67
2021/01/27 09:50:53;;;;;;;6.75;4.05;;;;;;;7.21;39.17;100631.97;4933152;28;97842;-67
2021/01/27 09:53:25;;;;;;;5.22;3.42;;;;;;;7.06;38.53;100632.44;4929949;28;98456;-67
2021/01/27 09:55:52;;;;;;;5.53;3.72;;;;;;;7.19;39.02;100628.59;4918109;28;96939;-67
2021/01/27 09:58:19;;;;;;;9.05;3.88;;;;;;;7.15;38.44;100620.94;4947351;28;96963;-67
2021/01/27 10:00:45;;;;;;;6.30;3.47;;;;;;;7.22;38.79;100618.13;4916572;28;97513;-67
2021/01/27 10:03:15;;;;;;;6.78;3.78;;;;;;;7.40;38.45;100605.47;4930503;28;98641;-67
2021/01/27 10:05:41;;;;;;;6.53;4.45;;;;;;;7.41;37.75;100610.63;4951193;28;99306;-66
2021/01/27 10:08:21;;;;;;;6.82;4.03;;;;;;;7.32;37.68;100616.94;4947779;28;96777;-67
2021/01/27 10:11:11;;;;;;;6.30;3.75;;;;;;;7.26;38.31;100609.34;4951695;28;98487;-67
2021/01/27 10:13:39;;;;;;;3.08;2.70;;;;;;;7.32;37.75;100603.97;4933850;28;99647;-67
2021/01/27 10:16:10;;;;;;;5.57;4.40;;;;;;;7.51;38.28;100603.38;4932679;28;97511;-67
2021/01/27 10:18:38;;;;;;;8.65;4.65;;;;;;;7.41;39.42;100612.38;4933771;28;96785;-67
2021/01/27 10:21:06;;;;;;;5.90;2.92;;;;;;;7.31;38.53;100620.44;4965751;28;99836;-67
2021/01/27 10:23:46;;;;;;;4.78;3.42;;;;;;;7.42;39.71;100614.91;4936723;28;98527;-67
2021/01/27 10:26:25;;;;;;;6.03;4.07;;;;;;;7.34;39.04;100614.28;4933537;28;97562;-67
2021/01/27 10:29:13;;;;;;;6.13;3.05;;;;;;;7.32;39.59;100614.34;4952521;28;97384;-66
2021/01/27 10:31:39;;;;;;;4.65;3.42;;;;;;;7.35;39.92;100618.63;4949941;28;99003;-67
2021/01/27 10:34:06;;;;;;;9.18;3.20;;;;;;;7.25;39.51;100627.56;4950528;28;98514;-67
2021/01/27 10:36:38;;;;;;;7.00;3.10;;;;;;;7.33;39.34;100623.81;4917627;28;97631;-67
2021/01/27 10:39:24;;;;;;;3.92;3.28;;;;;;;7.37;34.69;100619.41;4952379;28;99828;-67
2021/01/27 10:42:05;;;;;;;3.60;2.70;;;;;;;7.63;33.03;100613.41;4938430;28;98796;-67
2021/01/27 10:44:34;;;;;;;9.43;4.13;;;;;;;7.64;31.84;100609.91;4918462;28;98421;-67
2021/01/27 10:47:21;;;;;;;6.82;4.15;;;;;;;7.67;32.04;100612.41;4954829;28;98386;-67
2021/01/27 10:49:47;;;;;;;6.65;3.97;;;;;;;7.70;31.49;100604.50;4933702;28;99413;-67
2021/01/27 10:52:26;;;;;;;6.85;4.22;;;;;;;7.82;31.51;100598.91;4949109;28;99478;-67
2021/01/27 10:55:00;;;;;;;5.13;3.33;;;;;;;7.93;32.24;100587.31;4933538;28;98476;-67
2021/01/27 10:57:26;;;;;;;7.43;5.00;;;;;;;7.95;31.99;100586.38;4950777;28;99881;-67
2021/01/27 10:59:53;;;;;;;7.95;4.60;;;;;;;7.96;31.33;100569.06;4951630;28;96854;-67
2021/01/27 11:02:19;;;;;;;12.63;3.55;;;;;;;8.04;31.94;100564.44;4950608;28;98688;-67
2021/01/27 11:04:46;;;;;;;6.65;3.50;;;;;;;8.16;32.30;100569.22;4935768;28;99287;-67
2021/01/27 11:07:13;;;;;;;5.18;3.00;;;;;;;8.23;32.16;100567.25;4952601;28;96785;-67
2021/01/27 11:09:40;;;;;;;5.13;2.90;;;;;;;8.40;32.41;100563.19;4933340;28;97591;-67
2021/01/27 11:12:06;;;;;;;4.82;3.15;;;;;;;8.43;31.72;100553.59;4948980;28;98656;-67
2021/01/27 11:14:32;;;;;;;5.38;4.15;;;;;;;8.55;31.26;100548.78;4948747;28;98433;-67
2021/01/27 11:17:01;;;;;;;4.40;2.95;;;;;;;8.54;31.02;100552.31;4946086;28;96655;-67
2021/01/27 11:19:28;;;;;;;6.95;3.03;;;;;;;8.35;30.38;100556.44;4949810;28;96918;-66
2021/01/27 11:21:54;;;;;;;5.80;3.47;;;;;;;8.35;29.88;100574.59;4949341;28;98653;-67
2021/01/27 11:24:20;;;;;;;4.55;3.42;;;;;;;8.34;30.49;100575.50;4945187;28;99427;-67
2021/01/27 11:26:47;;;;;;;7.90;3.90;;;;;;;8.33;30.75;100572.06;4949218;28;98363;-66
2021/01/27 11:29:13;;;;;;;2.97;2.65;;;;;;;8.24;28.84;100564.59;4954126;28;98089;-67
2021/01/27 11:31:40;;;;;;;8.20;3.05;;;;;;;8.19;29.10;100569.09;4952737;28;98532;-66
2021/01/27 11:34:06;;;;;;;8.02;3.80;;;;;;;8.36;29.30;100566.81;4950621;28;99275;-67
2021/01/27 11:36:32;;;;;;;5.22;3.55;;;;;;;8.43;28.77;100564.00;4949914;28;97549;-67
2021/01/27 11:38:59;;;;;;;4.10;3.00;;;;;;;8.50;28.92;100552.47;4949368;28;97480;-67
2021/01/27 11:41:26;;;;;;;3.10;2.67;;;;;;;8.32;28.91;100552.19;4948479;28;98684;-67
2021/01/27 11:43:52;;;;;;;4.70;2.95;;;;;;;8.36;28.84;100555.53;4947577;28;98519;-67
2021/01/27 11:46:20;;;;;;;11.23;3.40;;;;;;;8.30;28.53;100548.78;4947354;28;97040;-67
2021/01/27 11:48:47;;;;;;;8.63;3.92;;;;;;;8.24;29.00;100538.63;4947374;28;96834;-66
2021/01/27 11:51:13;;;;;;;5.47;3.10;;;;;;;8.34;29.08;100540.00;4944807;28;98642;-67
2021/01/27 11:53:40;;;;;;;6.40;3.33;;;;;;;8.35;28.75;100541.69;4945420;28;99181;-67
2021/01/27 11:56:07;;;;;;;4.78;3.17;;;;;;;8.36;28.72;100530.44;4949697;28;97812;-67
2021/01/27 11:58:33;;;;;;;3.55;2.88;;;;;;;8.42;29.20;100534.56;4950455;28;96775;-67
2021/01/27 12:00:59;;;;;;;4.68;2.97;;;;;;;8.38;29.48;100533.81;4946006;28;100003;-67
2021/01/27 12:03:26;;;;;;;7.53;3.78;;;;;;;8.42;28.88;100531.97;4948921;28;99063;-67
2021/01/27 12:05:52;;;;;;;7.05;3.45;;;;;;;8.35;29.37;100541.69;4951495;28;99478;-67